HOURLY OBS INDEX

005

Pilbara - Fortescue

BARROW ISLAND AIRPORT

Site: 005094
Alt: 6.4m
90km NNE of ONSLOW


  Time     Wind        Temp  DP   Baro     Rain since   Rain past  Vis(m), Cloud(base in m), Weather
  local        km/h                         9am  last   hr   10m    
Sat 10:00  SSE 15/ 19  25.8 16.1  1019.8    0.0   0.0   0.0   0.0   ----- 
Sat 10:00  SSE 15/ 19  25.8 16.1  1019.8    0.0   0.0  ----   0.0   ----- 
Sat 10:30    S 17/ 20  25.6 15.9  1019.5    0.0   0.0   0.0   0.0   ----- 
Sat 11:00    S 17/ 20  26.2 15.9  1019.0    0.0   0.0   0.0   0.0   ----- 
Sat 11:00    S 17/ 20  26.2 15.9  1019.0    0.0   0.0  ----   0.0   ----- 
Sat 11:30    S 15/ 19  26.3 15.4  1018.7    0.0   0.0   0.0   0.0   ----- 
Sat 12:00    S 17/ 20  26.9 15.3  1018.2    0.0   0.0   0.0   0.0   ----- 
Sat 12:30    S 15/ 17  27.5 14.5  1017.8    0.0   0.0   0.0   0.0   ----- 
Sat 13:00  SSW 15/ 19  27.7 14.7  1017.3    0.0   0.0   0.0   0.0   ----- 
Sat 13:30  SSW 17/ 19  27.6 13.9  1016.8    0.0   0.0   0.0   0.0   ----- 
Sat 14:00  SSW 17/ 20  28.3 11.4  1016.2    0.0   0.0   0.0   0.0   ----- 
Sat 14:30  SSW 17/ 20  28.4 13.5  1015.9    0.0   0.0   0.0   0.0   ----- 
Sat 15:00  SSW 20/ 24  28.4 14.6  1015.7    0.0   0.0   0.0   0.0   ----- 
Sat 15:00  SSW 20/ 24  28.4 14.6  1015.7    0.0   0.0  ----   0.0   ----- 

BOOLGEEDA AIRPORT

Site: 005BGD
Alt: 585m
207km SSE of KARRATHA


  Time     Wind        Temp  DP   Baro     Rain since   Rain past  Vis(m), Cloud(base in m), Weather
  local        km/h                         9am  last   hr   10m    
Sat 10:00    N  7/ 19  26.8 -2.0  1021.9    0.0   0.0   0.0   0.0   10000 
Sat 10:00    N  7/ 19  26.8 -2.0  1021.9    0.0   0.0  ----   0.0   10000 
Sat 10:30  NNE  7/ 17  28.1 -0.9  1021.5    0.0   0.0   0.0   0.0   10000 
Sat 10:47   NE 28/ 43  29.2 -0.1  1021.3    0.0   0.0  ----   0.0   10000 
Sat 11:00    N 20/ 33  29.1 -0.1  1021.3    0.0   0.0   0.0   0.0   10000 
Sat 11:00    N 20/ 33  29.1 -0.1  1021.3    0.0   0.0  ----   0.0   10000 
Sat 11:30   NW 13/ 22  29.1 -0.1  1020.9    0.0   0.0   0.0   0.0   10000 
Sat 12:00  NNW 17/ 28  29.6  0.2  1020.3    0.0   0.0   0.0   0.0   10000 
Sat 12:30    N 19/ 35  29.9  0.5  1019.7    0.0   0.0   0.0   0.0   10000 
Sat 13:00   NW 20/ 30  30.4  0.9  1019.2    0.0   0.0   0.0   0.0   10000 
Sat 13:30    N 20/ 32  31.0  1.4  1018.8    0.0   0.0   0.0   0.0   10000 
Sat 14:00    N 20/ 28  31.4  1.7  1018.5    0.0   0.0   0.0   0.0   10000 
Sat 14:30  NNW 15/ 33  31.0  1.4  1018.1    0.0   0.0   0.0   0.0   10000 
Sat 15:00  ESE  6/ 11  30.8  1.2  1018.1    0.0   0.0   0.0   0.0   10000|SC3450 
Sat 15:00  ESE  6/ 11  30.8  1.2  1018.1    0.0   0.0  ----   0.0   10000|SC3450 

CHRISTMAS CREEK MINE AP

Site: 005CHK
Alt: m
111km N of NEWMAN


  Time     Wind        Temp  DP   Baro     Rain since   Rain past  Vis(m), Cloud(base in m), Weather
  local        km/h                         9am  last   hr   10m    
Sat 10:00   NE 30/ 41  28.5  1.1  1021.2    0.0   0.0  ----   0.0   10000 
Sat 10:00   NE 30/ 41  28.5  1.1  1021.2    0.0   0.0  ----   0.0   10000 
Sat 10:30  ENE 30/ 41  29.6  2.0  1021.0    0.0   0.0   0.0   0.0   10000 
Sat 11:00   NE 24/ 37  30.2  2.5  1020.6    0.0   0.0   0.0   0.0   10000 
Sat 11:00   NE 24/ 37  30.2  2.5  1020.6    0.0   0.0  ----   0.0   10000 
Sat 11:30  NNE 17/ 22  29.6  2.0  1020.1    0.0   0.0   0.0   0.0   10000 
Sat 12:00  NNE 28/ 37  30.6  1.9  1019.6    0.0   0.0   0.0   0.0   10000 
Sat 12:30    N 13/ 39  31.4  1.7  1018.9    0.0   0.0   0.0   0.0   10000 
Sat 13:00  NNW 13/ 24  31.3  1.6  1018.6    0.0   0.0   0.0   0.0   10000 
Sat 13:15  NNW 28/ 43  32.0  1.2  1018.3    0.0   0.0  ----   0.0   10000 
Sat 13:30    N 28/ 43  31.4  1.7  1018.3    0.0   0.0   0.0   0.0   10000 
Sat 14:00  NNW 22/ 33  31.7  1.0  1017.7    0.0   0.0   0.0   0.0   10000 
Sat 14:30    N 11/ 20  31.2  0.6  1017.5    0.0   0.0   0.0   0.0   10000 
Sat 15:00   NW 20/ 32  32.5  1.6  1017.1    0.0   0.0   0.0   0.0   10000 
Sat 15:00   NW 20/ 32  32.5  1.6  1017.1    0.0   0.0  ----   0.0   10000 

FORTESCUE DAVE FORREST AP

Site: 005FDF
Alt: 450m
124km NNW of NEWMAN


  Time     Wind        Temp  DP   Baro     Rain since   Rain past  Vis(m), Cloud(base in m), Weather
  local        km/h                         9am  last   hr   10m    
Sat 10:00  NNE 22/ 32  28.5  1.9  1021.4    0.0   0.0   0.0   0.0   10000 
Sat 10:00  NNE 22/ 32  28.5  1.9  1021.4    0.0   0.0  ----   0.0   10000 
Sat 10:30   NE 28/ 39  29.0  2.3  1021.2    0.0   0.0   0.0   0.0   10000 
Sat 10:59  ENE 30/ 72  29.7  2.1  1020.5    0.0   0.0  ----   0.0   10000 
Sat 10:59  ENE 30/ 72  29.7  2.1  1020.5    0.0   0.0  ----   0.0   10000 
Sat 11:00  ENE 30/ 72  30.2  2.5  1020.5    0.0   0.0   0.0   0.0   10000 
Sat 11:00  ENE 30/ 72  30.2  2.5  1020.5    0.0   0.0  ----   0.0   10000 
Sat 11:30   NE 20/ 33  29.6  2.0  1020.3    0.0   0.0   0.0   0.0   10000 
Sat 12:00  NNE 15/ 22  29.8  2.1  1019.7    0.0   0.0   0.0   0.0   10000 
Sat 12:30   NE 20/ 33  30.4  1.8  1019.2    0.0   0.0   0.0   0.0   10000 
Sat 13:00  NNW 20/ 30  31.1  1.4  1018.7    0.0   0.0   0.0   0.0   10000 
Sat 13:30  NNE 20/ 30  31.4  1.7  1018.3    0.0   0.0   0.0   0.0   10000 
Sat 14:00  NNW 26/ 37  31.3  1.6  1017.8    0.0   0.0   0.0   0.0   10000 
Sat 14:30    N 19/ 43  32.2  1.3  1017.4    0.0   0.0   0.0   0.0   10000 
Sat 15:00   NW 15/ 33  31.6  0.9  1017.4    0.0   0.0   0.0   0.0   10000 
Sat 15:00   NW 15/ 33  31.6  0.9  1017.4    0.0   0.0  ----   0.0   10000 

LEARMONTH AIRPORT

Site: 005007
Alt: 5.0m
34km S of EXMOUTH


  Time     Wind        Temp  DP   Baro     Rain since   Rain past  Vis(m), Cloud(base in m), Weather
  local        km/h                         9am  last   hr   10m    
Sat 10:00  ENE 13/ 20  24.3 13.8  1019.9    0.0   0.0   0.0   0.0   10000 
Sat 10:00  ENE 13/ 20  24.3 13.8  1019.9    0.0   0.0  ----   0.0   10000 
Sat 10:30  ENE 15/ 19  24.8 12.7  1019.7    0.0   0.0   0.0   0.0   10000 
Sat 11:00  ENE 13/ 17  25.9 13.1  1019.4    0.0   0.0   0.0   0.0   10000 
Sat 11:00  ENE 13/ 17  25.9 13.1  1019.4    0.0   0.0  ----   0.0   10000 
Sat 11:30  ENE 15/ 19  26.0 13.8  1018.8    0.0   0.0   0.0   0.0   10000 
Sat 12:00  ENE 15/ 17  26.7 12.0  1018.4    0.0   0.0   0.0   0.0   10000 
Sat 12:30  ENE 17/ 20  27.5 11.1  1017.8    0.0   0.0   0.0   0.0   10000 
Sat 13:00   NE 15/ 19  27.7 10.9  1017.5    0.0   0.0   0.0   0.0   10000 
Sat 13:30   NE 13/ 17  28.3  9.6  1017.0    0.0   0.0   0.0   0.0   10000 
Sat 14:00   NE 17/ 22  29.0  9.7  1016.6    0.0   0.0   0.0   0.0   10000 
Sat 14:30   NE 15/ 19  28.6  9.3  1016.5    0.0   0.0   0.0   0.0   10000 
Sat 15:00   NE 15/ 20  29.3 10.4  1016.5    0.0   0.0   0.0   0.0   10000 
Sat 15:00   NE 15/ 20  29.3 10.4  1016.5    0.0   0.0  ----   0.0   10000 

MARDIE

Site: 005008
Alt: 11.0m
103km ENE of ONSLOW


  Time     Wind        Temp  DP   Baro     Rain since   Rain past  Vis(m), Cloud(base in m), Weather
  local        km/h                         9am  last   hr   10m    
Sat 10:00    S 17/ 24  30.7 -0.8  1018.8    0.0   0.0   0.0   0.0   ----- 
Sat 10:00    S 17/ 24  30.7 -0.8  1018.8    0.0   0.0  ----   0.0   ----- 
Sat 10:30  SSW 13/ 24  31.8 -3.5  1018.6    0.0   0.0   0.0   0.0   ----- 
Sat 11:00   SW 11/ 22  32.6 -4.3  1018.1    0.0   0.0   0.0   0.0   ----- 
Sat 11:00   SW 11/ 22  32.6 -4.3  1018.1    0.0   0.0  ----   0.0   ----- 
Sat 11:30    W  9/ 13  32.1 -6.3  1017.7    0.0   0.0   0.0   0.0   ----- 
Sat 12:00  NNE  9/ 22  32.7 -7.6  1017.1    0.0   0.0   0.0   0.0   ----- 
Sat 12:30  WNW 20/ 28  33.8 -5.0  1016.4    0.0   0.0   0.0   0.0   ----- 
Sat 13:00  WNW 20/ 28  34.0 -1.9  1016.0    0.0   0.0   0.0   0.0   ----- 
Sat 13:30  WNW 20/ 33  34.3 -3.1  1015.5    0.0   0.0   0.0   0.0   ----- 
Sat 14:00    W 24/ 33  33.1 -7.3  1015.2    0.0   0.0   0.0   0.0   ----- 
Sat 14:30   NW 19/ 28  32.9 -7.4  1015.0    0.0   0.0   0.0   0.0   ----- 
Sat 15:00   NW 20/ 28  32.8 -7.5  1014.8    0.0   0.0   0.0   0.0   ----- 
Sat 15:00   NW 20/ 28  32.8 -7.5  1014.8    0.0   0.0  ----   0.0   ----- 

ONSLOW AIRPORT

Site: 005017
Alt: 10.5m
3km S of ONSLOW


  Time     Wind        Temp  DP   Baro     Rain since   Rain past  Vis(m), Cloud(base in m), Weather
  local        km/h                         9am  last   hr   10m    
Sat 10:00    S 15/ 19  29.3  5.4  1020.0    0.0   0.0   0.0   0.0   10000 
Sat 10:00    S 15/ 19  29.3  5.4  1020.0    0.0   0.0  ----   0.0   10000 
Sat 10:30    S 13/ 20  30.7  2.0  1019.7    0.0   0.0   0.0   0.0   10000 
Sat 11:00    S 13/ 20  31.3 -0.4  1019.3    0.0   0.0   0.0   0.0   10000 
Sat 11:00    S 13/ 20  31.3 -0.4  1019.3    0.0   0.0  ----   0.0   10000 
Sat 11:30   SE  9/ 15  32.4 -3.1  1019.1    0.0   0.0   0.0   0.0   10000 
Sat 12:00  NNW 13/ 19  31.4  9.0  1018.6    0.0   0.0   0.0   0.0   10000 
Sat 12:30   NW 17/ 20  31.1  8.8  1018.1    0.0   0.0   0.0   0.0   10000 
Sat 13:00   NW 17/ 20  32.0  4.7  1017.4    0.0   0.0   0.0   0.0   10000 
Sat 13:30   NW 19/ 22  32.4  6.6  1016.9    0.0   0.0   0.0   0.0   10000 
Sat 14:00  WNW 22/ 26  31.9  5.4  1016.7    0.0   0.0   0.0   0.0   10000 
Sat 14:30  WNW 24/ 28  31.3  5.7  1016.4    0.0   0.0   0.0   0.0   10000 
Sat 15:00  WNW 22/ 26  31.3  7.7  1016.2    0.0   0.0   0.0   0.0   10000 
Sat 15:00  WNW 22/ 26  31.3  7.7  1016.2    0.0   0.0  ----   0.0   10000 

SOLOMON AERODROME

Site: 005SOL
Alt: 625m
235km WSW of MARBLE BAR


  Time     Wind        Temp  DP   Baro     Rain since   Rain past  Vis(m), Cloud(base in m), Weather
  local        km/h                         9am  last   hr   10m    
Sat 10:00   NE 13/ 22  27.3  0.9  1022.0    0.0   0.0   0.0   0.0   10000 
Sat 10:00   NE 13/ 22  27.3  0.9  1022.0    0.0   0.0  ----   0.0   10000 
Sat 10:30   NE 17/ 33  27.8  1.3  1021.7    0.0   0.0   0.0   0.0   10000 
Sat 11:00  NNE 17/ 41  28.3  1.7  1021.5    0.0   0.0   0.0   0.0   10000 
Sat 11:00  NNE 17/ 41  28.3  1.7  1021.5    0.0   0.0  ----   0.0   10000 
Sat 11:30  NNE 11/ 26  29.1  1.6  1021.1    0.0   0.0   0.0   0.0   10000 
Sat 12:00  NNE 22/ 39  29.8  2.1  1020.4    0.0   0.0   0.0   0.0   10000 
Sat 12:30  NNW 20/ 35  29.9  2.2  1019.7    0.0   0.0   0.0   0.0   10000|SC3150 
Sat 13:00   NE 20/ 33  29.9  1.4  1019.4    0.0   0.0   0.0   0.0   10000 
Sat 13:30  NNW 19/ 30  30.0  1.5  1018.9    0.0   0.0   0.0   0.0   10000 
Sat 14:00  NNW 19/ 28  30.6  1.9  1018.6    0.0   0.0   0.0   0.0   10000 
Sat 14:30    N 17/ 26  30.7  1.1  1018.4    0.0   0.0   0.0   0.0   10000 
Sat 15:00  NNW 15/ 32  30.5  1.0  1018.3    0.0   0.0   0.0   0.0   10000 
Sat 15:00  NNW 15/ 32  30.5  1.0  1018.3    0.0   0.0  ----   0.0   10000